TimePDT,TemperatureF,Dew PointF,Humidity,Sea Level PressureIn,VisibilityMPH,Wind Direction,Wind SpeedMPH,Gust SpeedMPH,PrecipitationIn,Events,Conditions,WindDirDegrees,DateUTC
12:53 AM,55.0,46.0,72,30.22,10.0,North,3.5,-,N/A,,Overcast,10,2013-05-14 07:53:00
1:53 AM,54.0,46.0,75,30.21,10.0,NNE,4.6,-,N/A,,Overcast,30,2013-05-14 08:53:00
2:53 AM,53.1,46.0,77,30.20,10.0,Calm,Calm,-,N/A,,Mostly Cloudy,0,2013-05-14 09:53:00
3:53 AM,53.1,46.0,77,30.20,10.0,North,3.5,-,N/A,,Overcast,350,2013-05-14 10:53:00
4:53 AM,53.1,46.0,77,30.19,10.0,NE,3.5,-,N/A,,Overcast,40,2013-05-14 11:53:00
5:53 AM,52.0,46.0,80,30.19,10.0,NW,4.6,-,N/A,,Overcast,320,2013-05-14 12:53:00
6:04 AM,51.8,46.4,82,30.20,10.0,Calm,Calm,-,N/A,,Overcast,0,2013-05-14 13:04:00
6:53 AM,52.0,46.0,80,30.20,10.0,NNE,8.1,-,N/A,,Overcast,20,2013-05-14 13:53:00
7:53 AM,53.1,46.0,77,30.21,10.0,North,8.1,-,N/A,,Overcast,10,2013-05-14 14:53:00
8:53 AM,54.0,45.0,72,30.21,10.0,NNE,9.2,-,N/A,,Overcast,20,2013-05-14 15:53:00
9:53 AM,55.0,46.0,72,30.20,10.0,Variable,3.5,-,N/A,,Overcast,0,2013-05-14 16:53:00
10:53 AM,57.9,46.0,65,30.19,10.0,WNW,5.8,-,N/A,,Mostly Cloudy,290,2013-05-14 17:53:00
11:36 AM,59.0,46.4,63,30.18,10.0,Calm,Calm,-,N/A,,Partly Cloudy,0,2013-05-14 18:36:00
11:53 AM,62.1,46.9,58,30.17,10.0,Calm,Calm,-,N/A,,Partly Cloudy,0,2013-05-14 18:53:00
12:53 PM,63.0,46.9,56,30.15,10.0,West,3.5,-,N/A,,Scattered Clouds,260,2013-05-14 19:53:00
1:53 PM,66.0,46.0,48,30.13,10.0,Variable,3.5,-,N/A,,Clear,0,2013-05-14 20:53:00
2:53 PM,69.1,41.0,36,30.11,10.0,North,4.6,-,N/A,,Clear,10,2013-05-14 21:53:00
3:53 PM,70.0,37.9,31,30.09,10.0,NE,4.6,-,N/A,,Clear,50,2013-05-14 22:53:00
4:53 PM,72.0,39.9,31,30.08,10.0,NNW,6.9,-,N/A,,Clear,340,2013-05-14 23:53:00
5:53 PM,72.0,37.0,28,30.07,10.0,NNW,6.9,-,N/A,,Clear,340,2013-05-15 00:53:00
6:53 PM,71.1,36.0,28,30.07,10.0,North,5.8,-,N/A,,Clear,350,2013-05-15 01:53:00
7:53 PM,68.0,45.0,43,30.09,10.0,NNW,8.1,-,N/A,,Clear,340,2013-05-15 02:53:00
8:53 PM,63.0,43.0,48,30.11,10.0,NNW,10.4,-,N/A,,Clear,330,2013-05-15 03:53:00
9:53 PM,60.1,41.0,49,30.13,10.0,North,8.1,-,N/A,,Clear,360,2013-05-15 04:53:00
10:53 PM,57.9,37.0,46,30.14,10.0,North,6.9,-,N/A,,Clear,10,2013-05-15 05:53:00
11:53 PM,55.9,36.0,47,30.14,10.0,North,4.6,-,N/A,,Clear,10,2013-05-15 06:53:00